createdAt,value
2023-04-29T00:02:11.487Z,22.53
2023-04-29T00:04:40.858Z,22.07
2023-04-29T00:07:09.066Z,23.47
2023-04-29T00:09:36.306Z,21.53
2023-04-29T00:12:03.230Z,21.30
2023-04-29T00:14:29.996Z,25.00
2023-04-29T00:16:57.282Z,22.17
2023-04-29T00:19:26.467Z,21.13
2023-04-29T00:21:55.492Z,28.83
2023-04-29T00:24:22.264Z,27.27
2023-04-29T00:26:49.053Z,21.13
2023-04-29T00:29:18.978Z,24.80
2023-04-29T00:31:46.140Z,25.53
2023-04-29T00:34:12.939Z,24.63
2023-04-29T00:36:41.934Z,27.27
2023-04-29T00:39:08.667Z,27.20
2023-04-29T00:41:37.682Z,22.67
2023-04-29T00:44:04.602Z,25.67
2023-04-29T00:46:31.408Z,21.67
2023-04-29T00:48:58.215Z,22.63
2023-04-29T00:51:28.210Z,23.77
2023-04-29T00:53:58.537Z,27.10
2023-04-29T00:56:25.588Z,21.70
2023-04-29T00:58:54.605Z,29.23
2023-04-29T01:01:22.060Z,23.83
2023-04-29T01:03:51.222Z,20.93
2023-04-29T01:06:43.919Z,24.77
2023-04-29T01:09:45.492Z,25.70
2023-04-29T01:12:36.290Z,28.07
2023-04-29T01:15:20.425Z,26.80
2023-04-29T01:18:04.739Z,27.20
2023-04-29T01:20:31.573Z,24.03
2023-04-29T01:23:02.999Z,24.20
2023-04-29T01:25:29.817Z,23.37
2023-04-29T01:28:18.457Z,20.77
2023-04-29T01:31:01.079Z,22.13
2023-04-29T01:33:49.341Z,24.13
2023-04-29T01:36:48.321Z,21.53
2023-04-29T01:39:37.982Z,25.27
2023-04-29T01:42:17.690Z,23.73
2023-04-29T01:44:47.663Z,19.93
2023-04-29T01:47:15.049Z,25.63
2023-04-29T01:49:41.825Z,28.37
2023-04-29T01:52:13.455Z,22.77
2023-04-29T01:54:40.286Z,24.23
2023-04-29T01:57:07.057Z,25.13
2023-04-29T01:59:36.532Z,20.13
2023-04-29T02:02:03.292Z,21.80
2023-04-29T02:04:33.747Z,21.50
2023-04-29T02:07:00.593Z,18.97
2023-04-29T02:09:27.471Z,21.47
2023-04-29T02:11:56.413Z,20.53
2023-04-29T02:14:23.182Z,23.60
2023-04-29T02:16:50.281Z,21.33
2023-04-29T02:19:21.782Z,22.63
2023-04-29T02:21:48.541Z,24.07
2023-04-29T02:24:15.681Z,20.10
2023-04-29T02:26:44.557Z,20.50
2023-04-29T02:29:11.424Z,21.27
2023-04-29T02:31:38.318Z,18.47
2023-04-29T02:34:05.128Z,18.00
2023-04-29T02:36:31.956Z,24.93
2023-04-29T02:39:00.216Z,17.87
2023-04-29T02:41:27.038Z,21.17
2023-04-29T02:43:53.777Z,23.90
2023-04-29T02:46:20.673Z,16.90
2023-04-29T02:48:47.538Z,18.33
2023-04-29T02:51:17.270Z,19.30
2023-04-29T02:53:44.227Z,18.87
2023-04-29T02:56:11.643Z,20.87
2023-04-29T02:58:38.440Z,23.03
2023-04-29T03:01:07.424Z,19.47
2023-04-29T03:03:34.440Z,22.77
2023-04-29T03:06:01.260Z,20.27
2023-04-29T03:08:28.198Z,17.80
2023-04-29T03:10:57.202Z,17.17
2023-04-29T03:13:23.967Z,19.07
2023-04-29T03:15:50.733Z,18.57
2023-04-29T03:18:20.036Z,20.67
2023-04-29T03:20:46.816Z,18.97
2023-04-29T03:23:13.555Z,19.73
2023-04-29T03:25:42.614Z,17.73
2023-04-29T03:28:09.387Z,20.40
2023-04-29T03:30:36.750Z,17.77
2023-04-29T03:33:05.687Z,19.67
2023-04-29T03:35:32.609Z,21.23
2023-04-29T03:37:59.449Z,18.97
2023-04-29T03:40:30.697Z,22.17
2023-04-29T03:42:57.470Z,19.97
2023-04-29T03:45:26.609Z,19.10
2023-04-29T03:47:55.915Z,22.10
2023-04-29T03:50:23.477Z,17.00
2023-04-29T03:52:50.331Z,18.13
2023-04-29T03:55:17.245Z,16.17
2023-04-29T03:57:43.994Z,17.83
2023-04-29T04:00:11.429Z,18.27
2023-04-29T04:02:42.978Z,17.10
2023-04-29T04:05:11.005Z,16.40
2023-04-29T04:07:40.350Z,18.20
2023-04-29T04:10:07.502Z,17.60
2023-04-29T04:12:34.249Z,23.13
2023-04-29T04:15:01.072Z,16.33
2023-04-29T04:17:27.813Z,15.50
2023-04-29T04:19:54.837Z,13.23
2023-04-29T04:22:21.904Z,16.90
2023-04-29T04:24:48.892Z,15.00
2023-04-29T04:27:15.799Z,13.83
2023-04-29T04:29:42.814Z,17.87
2023-04-29T04:32:12.213Z,16.87
2023-04-29T04:34:42.058Z,16.80
2023-04-29T04:37:08.825Z,15.90
2023-04-29T04:39:39.989Z,17.10
2023-04-29T04:42:06.918Z,13.10
2023-04-29T04:44:35.876Z,16.43
2023-04-29T04:47:05.482Z,14.90
2023-04-29T04:49:32.246Z,13.60
2023-04-29T04:52:01.247Z,15.57
2023-04-29T04:54:28.073Z,16.00
2023-04-29T04:56:57.291Z,16.87
2023-04-29T04:59:24.048Z,18.27
2023-04-29T05:01:53.364Z,16.97
2023-04-29T05:04:20.417Z,12.47
2023-04-29T05:06:47.548Z,12.97
2023-04-29T05:09:14.336Z,13.87
2023-04-29T05:11:41.983Z,12.83
2023-04-29T05:14:08.822Z,14.67
2023-04-29T05:16:40.372Z,13.10
2023-04-29T05:19:09.706Z,18.00
2023-04-29T05:21:36.483Z,13.90
2023-04-29T05:24:06.221Z,15.37
2023-04-29T05:26:33.046Z,13.07
2023-04-29T05:29:02.251Z,12.17
2023-04-29T05:31:29.162Z,14.90
2023-04-29T05:33:56.040Z,11.97
2023-04-29T05:36:22.835Z,13.70
2023-04-29T05:38:49.598Z,12.17
2023-04-29T05:41:18.867Z,18.30
2023-04-29T05:43:48.289Z,16.03
2023-04-29T05:46:15.085Z,12.93
2023-04-29T05:48:42.124Z,10.33
2023-04-29T05:51:08.962Z,14.50
2023-04-29T05:53:36.208Z,13.33
2023-04-29T05:56:06.570Z,11.13
2023-04-29T05:58:33.330Z,15.20
2023-04-29T06:01:02.920Z,13.67
2023-04-29T06:03:30.101Z,17.00
2023-04-29T06:05:57.130Z,11.00
2023-04-29T06:08:26.794Z,12.73
2023-04-29T06:10:53.572Z,13.43
2023-04-29T06:13:20.469Z,11.60
2023-04-29T06:15:47.286Z,12.50
2023-04-29T06:18:14.261Z,11.07
2023-04-29T06:20:43.429Z,11.30
2023-04-29T06:23:10.439Z,9.17
2023-04-29T06:25:37.244Z,11.27
2023-04-29T06:28:04.522Z,10.27
2023-04-29T06:30:31.371Z,12.83
2023-04-29T06:32:58.138Z,13.10
2023-04-29T06:35:25.002Z,12.27
2023-04-29T06:37:52.821Z,9.33
2023-04-29T06:40:19.623Z,15.70
2023-04-29T06:42:48.769Z,11.67
2023-04-29T06:45:15.527Z,13.00
2023-04-29T06:47:42.353Z,10.53
2023-04-29T06:50:09.819Z,13.73
2023-04-29T06:52:36.603Z,8.83
2023-04-29T06:55:05.576Z,16.00
2023-04-29T06:57:32.731Z,10.30
2023-04-29T07:00:01.877Z,6.37
2023-04-29T07:02:28.736Z,10.47
2023-04-29T07:04:55.691Z,11.03
2023-04-29T07:07:22.497Z,11.20
2023-04-29T07:09:52.163Z,10.40
2023-04-29T07:12:19.163Z,12.83
2023-04-29T07:14:48.304Z,9.67
2023-04-29T07:17:15.095Z,8.37
2023-04-29T07:19:41.935Z,6.80
2023-04-29T07:22:11.197Z,10.40
2023-04-29T07:24:38.086Z,7.63
2023-04-29T07:27:04.823Z,8.33
2023-04-29T07:29:33.967Z,19.80
2023-04-29T07:32:03.204Z,7.93
2023-04-29T07:34:29.979Z,9.73
2023-04-29T07:37:01.451Z,7.37
2023-04-29T07:39:29.310Z,7.83
2023-04-29T07:41:59.985Z,7.40
2023-04-29T07:44:26.835Z,10.80
2023-04-29T07:46:53.604Z,11.10
2023-04-29T07:49:20.327Z,6.53
2023-04-29T07:51:47.104Z,11.40
2023-04-29T07:54:13.864Z,8.10
2023-04-29T07:56:42.986Z,6.43
2023-04-29T07:59:09.765Z,10.63
2023-04-29T08:01:36.554Z,6.13
2023-04-29T08:04:05.747Z,12.07
2023-04-29T08:06:35.793Z,14.60
2023-04-29T08:09:03.293Z,11.43
2023-04-29T08:11:34.520Z,8.90
2023-04-29T08:14:01.469Z,10.17
2023-04-29T08:16:28.446Z,13.00
2023-04-29T08:18:56.287Z,7.53
2023-04-29T08:21:25.448Z,6.67
2023-04-29T08:23:52.247Z,5.93
2023-04-29T08:26:22.545Z,13.37
2023-04-29T08:28:50.447Z,8.27
2023-04-29T08:31:22.559Z,8.43
2023-04-29T08:33:49.358Z,8.23
2023-04-29T08:36:21.410Z,8.47
2023-04-29T08:38:52.732Z,9.63
2023-04-29T08:41:19.567Z,11.20
2023-04-29T08:43:46.423Z,7.93
2023-04-29T08:46:15.543Z,5.93
2023-04-29T08:48:45.534Z,8.87
2023-04-29T08:51:13.854Z,7.97
2023-04-29T08:53:40.747Z,9.33
2023-04-29T08:56:14.850Z,11.03
2023-04-29T08:58:41.702Z,8.90
2023-04-29T09:01:11.564Z,8.53
2023-04-29T09:04:13.274Z,10.47
2023-04-29T09:06:40.111Z,12.53
2023-04-29T09:09:06.835Z,6.43
2023-04-29T09:11:33.656Z,7.17
2023-04-29T09:14:01.474Z,6.27
2023-04-29T09:16:33.630Z,8.03
2023-04-29T09:19:02.882Z,10.67
2023-04-29T09:21:35.510Z,14.97
2023-04-29T09:24:03.383Z,9.17
2023-04-29T09:26:44.288Z,8.17
2023-04-29T09:29:16.407Z,6.90
2023-04-29T09:31:43.479Z,16.27
2023-04-29T09:34:11.889Z,7.80
2023-04-29T09:36:46.361Z,11.83
2023-04-29T09:39:16.298Z,11.37
2023-04-29T09:41:55.462Z,10.97
2023-04-29T09:44:27.248Z,7.87
2023-04-29T09:46:58.504Z,7.83
2023-04-29T09:49:26.109Z,10.90
2023-04-29T09:52:00.544Z,10.60
2023-04-29T09:54:28.663Z,7.47
2023-04-29T09:57:00.697Z,8.03
2023-04-29T09:59:27.536Z,13.70
2023-04-29T10:01:55.900Z,8.80
2023-04-29T10:04:24.596Z,8.63
2023-04-29T10:06:52.522Z,9.80
2023-04-29T10:09:24.264Z,6.13
2023-04-29T10:11:54.016Z,10.43
2023-04-29T10:14:21.973Z,10.50
2023-04-29T10:16:54.772Z,11.43
2023-04-29T10:19:31.372Z,6.93
2023-04-29T10:21:59.026Z,9.43
2023-04-29T10:24:25.832Z,8.27
2023-04-29T10:26:53.301Z,11.63
2023-04-29T10:29:20.111Z,5.43
2023-04-29T10:31:47.136Z,10.70
2023-04-29T10:34:14.113Z,9.67
2023-04-29T10:36:41.305Z,10.90
2023-04-29T10:39:12.155Z,7.40
2023-04-29T10:41:51.324Z,11.33
2023-04-29T10:44:20.860Z,7.97
2023-04-29T10:46:47.674Z,8.43
2023-04-29T10:49:14.545Z,14.10
2023-04-29T10:51:44.676Z,15.60
2023-04-29T10:54:15.556Z,8.90
2023-04-29T10:56:44.185Z,7.50
2023-04-29T10:59:33.994Z,9.73
2023-04-29T11:02:02.913Z,7.03
2023-04-29T11:04:29.771Z,11.43
2023-04-29T11:06:59.050Z,7.65
2023-04-29T11:09:34.265Z,6.78
2023-04-29T11:12:05.969Z,5.30
2023-04-29T11:14:49.920Z,8.50
2023-04-29T11:17:17.956Z,10.38
2023-04-29T11:19:46.772Z,7.78
2023-04-29T11:22:21.159Z,9.63
2023-04-29T11:24:52.876Z,8.02
2023-04-29T11:27:20.738Z,5.68
2023-04-29T11:29:47.714Z,6.32
2023-04-29T11:32:16.846Z,8.80
2023-04-29T11:34:43.891Z,6.30
2023-04-29T11:37:10.697Z,8.35
2023-04-29T11:39:37.489Z,9.77
2023-04-29T11:42:07.376Z,11.85
2023-04-29T11:44:38.049Z,11.18
2023-04-29T11:47:05.920Z,4.68
2023-04-29T11:49:33.496Z,4.88
2023-04-29T11:52:00.266Z,6.97
2023-04-29T11:54:29.720Z,3.97
2023-04-29T11:56:57.107Z,5.93
2023-04-29T11:59:24.132Z,6.60
2023-04-29T12:01:51.274Z,8.10
2023-04-29T12:04:20.782Z,7.82
2023-04-29T12:06:51.461Z,10.88
2023-04-29T12:09:19.415Z,8.52
2023-04-29T12:11:50.314Z,7.30
2023-04-29T12:14:20.423Z,8.55
2023-04-29T12:16:49.715Z,7.75
2023-04-29T12:19:16.498Z,12.05
2023-04-29T12:21:52.437Z,7.95
2023-04-29T12:24:21.399Z,8.93
2023-04-29T12:26:50.786Z,9.57
2023-04-29T12:29:17.539Z,9.97
2023-04-29T12:31:47.495Z,8.83
2023-04-29T12:34:14.260Z,6.80
2023-04-29T12:36:46.366Z,6.20
2023-04-29T12:39:16.468Z,9.10
2023-04-29T12:41:43.392Z,9.90
2023-04-29T12:44:12.899Z,13.10
2023-04-29T12:46:41.310Z,12.27
2023-04-29T12:49:08.323Z,10.50
2023-04-29T12:51:35.519Z,7.17
2023-04-29T12:54:03.670Z,8.47
2023-04-29T12:56:33.412Z,9.43
2023-04-29T12:59:12.937Z,6.30
2023-04-29T13:01:42.203Z,7.23
2023-04-29T13:04:12.146Z,8.70
2023-04-29T13:06:39.621Z,7.33
2023-04-29T13:09:17.057Z,8.07
2023-04-29T13:11:45.548Z,6.57
2023-04-29T13:14:12.387Z,8.10
2023-04-29T13:16:39.202Z,9.37
2023-04-29T13:19:24.621Z,7.63
2023-04-29T13:21:57.342Z,6.00
2023-04-29T13:24:26.323Z,9.70
2023-04-29T13:26:54.290Z,9.27
2023-04-29T13:29:21.147Z,5.93
2023-04-29T13:31:51.097Z,8.53
2023-04-29T13:34:21.348Z,12.00
2023-04-29T13:36:48.247Z,9.47
2023-04-29T13:39:15.303Z,7.93
2023-04-29T13:41:45.485Z,8.33
2023-04-29T13:44:23.831Z,7.73
2023-04-29T13:46:55.842Z,5.87
2023-04-29T13:49:54.748Z,6.50
2023-04-29T13:54:58.784Z,9.30
2023-04-29T14:00:01.557Z,6.57
2023-04-29T14:02:36.912Z,6.13
2023-04-29T14:05:04.390Z,7.87
2023-04-29T14:07:33.646Z,9.23
2023-04-29T14:10:02.545Z,6.03
2023-04-29T14:12:29.280Z,10.00
2023-04-29T14:14:56.921Z,7.27
2023-04-29T14:17:25.223Z,8.17
2023-04-29T14:19:52.204Z,7.27
2023-04-29T14:22:19.119Z,12.53
2023-04-29T14:24:48.339Z,8.57
2023-04-29T14:27:15.376Z,10.07
2023-04-29T14:29:42.104Z,12.53
2023-04-29T14:32:08.895Z,7.20
2023-04-29T14:34:35.955Z,6.87
2023-04-29T14:37:03.163Z,8.57
2023-04-29T14:39:29.897Z,9.07
2023-04-29T14:41:59.144Z,8.43
2023-04-29T14:44:28.117Z,8.13
2023-04-29T14:46:57.253Z,10.77
2023-04-29T14:49:26.251Z,8.73
2023-04-29T14:51:53.029Z,8.70
2023-04-29T14:54:21.967Z,7.17
2023-04-29T14:56:50.946Z,8.23
2023-04-29T14:59:17.752Z,8.53
2023-04-29T15:01:44.598Z,7.00
2023-04-29T15:04:12.862Z,7.23
2023-04-29T15:06:40.768Z,6.83
2023-04-29T15:09:07.987Z,9.27
2023-04-29T15:11:34.801Z,8.20
2023-04-29T15:14:01.596Z,6.77
2023-04-29T15:16:31.729Z,9.50
2023-04-29T15:18:58.889Z,7.67
2023-04-29T15:21:26.898Z,8.47
2023-04-29T15:23:53.826Z,7.33
2023-04-29T15:26:21.705Z,7.63
2023-04-29T15:28:48.466Z,10.67
2023-04-29T15:31:17.819Z,8.67
2023-04-29T15:33:44.701Z,8.83
2023-04-29T15:36:11.575Z,8.77
2023-04-29T15:38:38.362Z,12.93
2023-04-29T15:41:07.333Z,7.90
2023-04-29T15:43:34.443Z,10.30
2023-04-29T15:46:01.282Z,7.47
2023-04-29T15:48:28.205Z,7.70
2023-04-29T15:50:55.263Z,5.50
2023-04-29T15:53:23.288Z,7.93
2023-04-29T15:55:50.091Z,10.40
2023-04-29T15:58:19.071Z,12.03
2023-04-29T16:00:48.669Z,6.57
2023-04-29T16:03:15.530Z,5.60
2023-04-29T16:05:45.043Z,12.67
2023-04-29T16:08:11.905Z,8.60
2023-04-29T16:10:41.094Z,10.33
2023-04-29T16:13:08.132Z,7.93
2023-04-29T16:15:34.851Z,6.90
2023-04-29T16:18:03.916Z,6.30
2023-04-29T16:20:30.657Z,8.80
2023-04-29T16:22:59.533Z,10.67
2023-04-29T16:25:28.393Z,6.03
2023-04-29T16:27:55.264Z,6.63
2023-04-29T16:30:22.215Z,13.53
2023-04-29T16:32:49.049Z,6.63
2023-04-29T16:35:16.189Z,6.00
2023-04-29T16:37:45.103Z,9.07
2023-04-29T16:40:12.388Z,8.13
2023-04-29T16:42:41.325Z,9.40
2023-04-29T16:45:08.997Z,10.10
2023-04-29T16:47:40.803Z,9.77
2023-04-29T16:50:08.864Z,9.33
2023-04-29T16:52:35.607Z,7.43
2023-04-29T16:55:03.740Z,8.30
2023-04-29T16:57:30.810Z,9.33
2023-04-29T16:59:57.720Z,7.00
2023-04-29T17:02:24.595Z,7.07
2023-04-29T17:04:53.949Z,6.10
2023-04-29T17:07:22.988Z,6.03
2023-04-29T17:09:49.901Z,9.87
2023-04-29T17:12:16.790Z,10.60
2023-04-29T17:14:44.370Z,6.90
2023-04-29T17:17:11.216Z,7.60
2023-04-29T17:19:37.939Z,10.47
2023-04-29T17:22:05.066Z,7.43
2023-04-29T17:24:32.679Z,8.20
2023-04-29T17:27:05.510Z,11.37
2023-04-29T17:29:32.298Z,8.53
2023-04-29T17:32:03.449Z,7.30
2023-04-29T17:34:34.072Z,7.50
2023-04-29T17:37:03.764Z,11.00
2023-04-29T17:39:30.909Z,14.57
2023-04-29T17:41:59.879Z,9.57
2023-04-29T17:44:26.655Z,12.87
2023-04-29T17:46:55.842Z,10.73
2023-04-29T17:49:22.612Z,9.60
2023-04-29T17:51:49.397Z,9.97
2023-04-29T17:54:18.669Z,9.40
2023-04-29T17:56:47.589Z,11.60
2023-04-29T17:59:14.440Z,9.77
2023-04-29T18:01:41.691Z,9.17
2023-04-29T18:04:13.350Z,10.07
2023-04-29T18:06:40.303Z,10.03
2023-04-29T18:09:07.370Z,8.97
2023-04-29T18:11:34.140Z,11.17
2023-04-29T18:14:01.129Z,9.90
2023-04-29T18:16:28.043Z,12.03
2023-04-29T18:18:56.818Z,11.27
2023-04-29T18:21:24.732Z,11.20
2023-04-29T18:23:51.594Z,9.43
2023-04-29T18:26:20.992Z,8.60
2023-04-29T18:28:47.979Z,8.23
2023-04-29T18:31:20.755Z,10.13
2023-04-29T18:33:49.878Z,10.70
2023-04-29T18:36:21.403Z,10.43
2023-04-29T18:38:48.246Z,11.93
2023-04-29T18:41:15.065Z,10.17
2023-04-29T18:43:46.527Z,8.83
2023-04-29T18:46:15.478Z,8.87
2023-04-29T18:48:42.341Z,9.40
2023-04-29T18:51:09.134Z,12.83
2023-04-29T18:53:36.008Z,9.57
2023-04-29T18:56:05.328Z,11.50
2023-04-29T18:58:32.181Z,12.83
2023-04-29T19:01:02.954Z,11.30
2023-04-29T19:03:32.257Z,11.30
2023-04-29T19:05:59.100Z,12.93
2023-04-29T19:08:26.295Z,12.47
2023-04-29T19:10:54.085Z,12.27
2023-04-29T19:13:21.241Z,12.93
2023-04-29T19:15:50.915Z,9.20
2023-04-29T19:18:20.087Z,10.20
2023-04-29T19:20:46.956Z,15.20
2023-04-29T19:23:16.015Z,12.10
2023-04-29T19:25:45.263Z,13.57
2023-04-29T19:28:12.136Z,13.67
2023-04-29T19:30:38.961Z,11.63
2023-04-29T19:33:08.524Z,9.17
2023-04-29T19:35:37.704Z,12.30
2023-04-29T19:38:04.465Z,12.30
2023-04-29T19:40:31.203Z,12.73
2023-04-29T19:42:57.945Z,16.97
2023-04-29T19:45:24.721Z,12.33
2023-04-29T19:47:51.498Z,14.03
2023-04-29T19:50:19.471Z,16.83
2023-04-29T19:52:46.708Z,14.50
2023-04-29T19:55:14.432Z,13.53
2023-04-29T19:57:41.291Z,15.67
2023-04-29T20:00:13.505Z,15.23
2023-04-29T20:02:43.567Z,12.77
2023-04-29T20:05:13.684Z,15.80
2023-04-29T20:07:41.328Z,18.47
2023-04-29T20:10:08.629Z,11.43
2023-04-29T20:12:35.871Z,11.50
2023-04-29T20:15:05.891Z,14.83
2023-04-29T20:17:34.893Z,11.40
2023-04-29T20:20:04.138Z,12.17
2023-04-29T20:22:30.984Z,14.87
2023-04-29T20:24:57.770Z,14.00
2023-04-29T20:27:26.738Z,12.10
2023-04-29T20:29:56.921Z,17.27
2023-04-29T20:32:24.023Z,12.80
2023-04-29T20:34:50.942Z,16.30
2023-04-29T20:37:19.506Z,12.90
2023-04-29T20:39:48.779Z,14.70
2023-04-29T20:42:15.591Z,14.60
2023-04-29T20:44:42.581Z,15.23
2023-04-29T20:47:12.557Z,17.17
2023-04-29T20:49:41.675Z,15.80
2023-04-29T20:52:08.414Z,15.63
2023-04-29T20:54:35.248Z,15.17
2023-04-29T20:57:05.392Z,11.93
2023-04-29T20:59:36.636Z,15.87
2023-04-29T21:02:05.604Z,14.23
2023-04-29T21:04:34.805Z,15.27
2023-04-29T21:07:10.297Z,16.93
2023-04-29T21:09:37.159Z,12.17
2023-04-29T21:12:05.458Z,11.90
2023-04-29T21:14:32.899Z,14.10
2023-04-29T21:17:02.106Z,18.20
2023-04-29T21:19:28.849Z,13.30
2023-04-29T21:21:55.596Z,17.47
2023-04-29T21:24:22.334Z,13.10
2023-04-29T21:26:50.506Z,15.23
2023-04-29T21:29:17.339Z,15.67
2023-04-29T21:31:44.269Z,15.60
2023-04-29T21:34:11.112Z,15.73
2023-04-29T21:36:37.871Z,15.87
2023-04-29T21:39:06.207Z,15.03
2023-04-29T21:41:37.395Z,15.47
2023-04-29T21:44:04.194Z,15.30
2023-04-29T21:46:33.171Z,12.33
2023-04-29T21:49:02.122Z,16.47
2023-04-29T21:51:29.262Z,13.13
2023-04-29T21:54:00.692Z,16.30
2023-04-29T21:56:29.595Z,12.73
2023-04-29T21:58:58.800Z,15.57
2023-04-29T22:01:26.949Z,17.90
2023-04-29T22:03:54.872Z,18.00
2023-04-29T22:06:21.755Z,17.40
2023-04-29T22:08:48.610Z,13.77
2023-04-29T22:11:15.678Z,16.03
2023-04-29T22:13:45.690Z,17.13
2023-04-29T22:16:14.908Z,19.30
2023-04-29T22:18:41.750Z,15.13
2023-04-29T22:21:13.318Z,14.83
2023-04-29T22:23:40.063Z,19.73
2023-04-29T22:26:06.929Z,18.27
2023-04-29T22:28:33.707Z,15.13
2023-04-29T22:31:00.533Z,19.80
2023-04-29T22:33:27.264Z,21.10
2023-04-29T22:35:54.034Z,17.00
2023-04-29T22:38:22.841Z,17.67
2023-04-29T22:40:52.889Z,16.27
2023-04-29T22:43:22.539Z,18.63
2023-04-29T22:45:56.093Z,20.83
2023-04-29T22:48:25.115Z,16.33
2023-04-29T22:50:59.420Z,17.77
2023-04-29T22:53:28.454Z,19.53
2023-04-29T22:55:56.315Z,22.07
2023-04-29T22:58:25.312Z,19.60
2023-04-29T23:00:56.764Z,22.23
2023-04-29T23:03:26.801Z,20.50
2023-04-29T23:06:00.520Z,19.83
2023-04-29T23:08:27.645Z,20.70
2023-04-29T23:10:54.637Z,19.07
2023-04-29T23:13:21.457Z,21.30
2023-04-29T23:15:50.813Z,21.77
2023-04-29T23:18:17.597Z,22.37
2023-04-29T23:20:49.610Z,21.90
2023-04-29T23:23:18.526Z,22.63
2023-04-29T23:25:48.066Z,27.60
2023-04-29T23:28:14.839Z,25.97
2023-04-29T23:30:44.588Z,26.00
2023-04-29T23:33:11.365Z,25.57
2023-04-29T23:35:38.096Z,27.63
2023-04-29T23:38:04.918Z,23.53
2023-04-29T23:40:31.943Z,21.53
2023-04-29T23:43:01.235Z,25.00
2023-04-29T23:45:27.957Z,25.50
2023-04-29T23:47:54.779Z,28.37
2023-04-29T23:50:21.619Z,28.13
2023-04-29T23:52:48.428Z,25.07
2023-04-29T23:55:15.168Z,28.00
2023-04-29T23:57:41.903Z,24.40
